createdAt,value
2023-01-23T00:32:53.862Z,27.10
2023-01-23T00:35:21.425Z,24.30
2023-01-23T00:37:48.614Z,22.70
2023-01-23T00:40:15.763Z,27.90
2023-01-23T00:42:42.982Z,24.90
2023-01-23T00:45:10.673Z,27.70
2023-01-23T00:47:37.797Z,26.10
2023-01-23T00:50:05.676Z,27.80
2023-01-23T00:52:32.918Z,26.10
2023-01-23T00:55:00.282Z,27.70
2023-01-23T00:57:27.943Z,28.20
2023-01-23T00:59:55.090Z,27.20
2023-01-23T01:02:22.553Z,26.70
2023-01-23T01:04:49.711Z,28.00
2023-01-23T01:07:17.063Z,25.80
2023-01-23T01:09:44.215Z,29.30
2023-01-23T01:12:11.367Z,31.00
2023-01-23T01:14:38.515Z,34.10
2023-01-23T01:17:05.665Z,30.80
2023-01-23T01:19:32.816Z,34.00
2023-01-23T01:21:59.977Z,27.40
2023-01-23T01:24:27.143Z,40.70
2023-01-23T01:26:54.273Z,32.90
2023-01-23T01:29:23.576Z,26.40
2023-01-23T01:31:50.771Z,29.50
2023-01-23T01:34:19.523Z,32.90
2023-01-23T01:36:46.812Z,44.00
2023-01-23T01:39:14.031Z,29.80
2023-01-23T01:41:42.114Z,28.40
2023-01-23T01:44:18.983Z,28.90
2023-01-23T01:46:46.470Z,32.50
2023-01-23T01:49:33.975Z,31.50
2023-01-23T01:52:06.872Z,27.40
2023-01-23T01:54:39.547Z,24.90
2023-01-23T01:57:11.817Z,26.30
2023-01-23T01:59:46.862Z,27.30
2023-01-23T02:02:21.033Z,20.20
2023-01-23T02:04:49.966Z,22.40
2023-01-23T02:07:31.965Z,23.50
2023-01-23T02:09:59.120Z,23.70
2023-01-23T02:12:27.295Z,22.60
2023-01-23T02:14:54.652Z,22.50
2023-01-23T02:17:22.020Z,22.90
2023-01-23T02:20:25.730Z,23.60
2023-01-23T02:22:59.629Z,22.40
2023-01-23T02:25:44.711Z,22.20
2023-01-23T02:28:16.051Z,23.20
2023-01-23T02:30:46.975Z,23.20
2023-01-23T02:33:20.607Z,17.30
2023-01-23T02:35:48.172Z,14.50
2023-01-23T02:38:16.127Z,13.90
2023-01-23T02:40:43.279Z,14.40
2023-01-23T02:43:14.941Z,12.20
2023-01-23T02:45:47.564Z,13.90
2023-01-23T02:48:15.487Z,14.60
2023-01-23T02:50:45.303Z,14.20
2023-01-23T02:53:13.099Z,14.70
2023-01-23T02:55:43.615Z,14.60
2023-01-23T02:58:29.594Z,16.50
2023-01-23T03:00:56.964Z,16.60
2023-01-23T03:03:24.100Z,13.70
2023-01-23T03:05:51.663Z,14.80
2023-01-23T03:08:18.813Z,12.40
2023-01-23T03:10:45.967Z,13.00
2023-01-23T03:13:13.845Z,12.50
2023-01-23T03:15:42.539Z,14.20
2023-01-23T03:18:09.985Z,15.20
2023-01-23T03:20:40.838Z,15.70
2023-01-23T03:23:08.739Z,13.30
2023-01-23T03:25:35.941Z,14.90
2023-01-23T03:28:03.806Z,16.90
2023-01-23T03:30:31.290Z,16.00
2023-01-23T03:32:58.833Z,16.50
2023-01-23T03:35:26.304Z,17.10
2023-01-23T03:37:54.566Z,14.10
2023-01-23T03:40:42.515Z,13.80
2023-01-23T03:43:11.190Z,14.50
2023-01-23T03:45:42.983Z,14.60
2023-01-23T03:48:10.230Z,15.60
2023-01-23T03:50:37.461Z,16.40
2023-01-23T03:53:04.712Z,15.10
2023-01-23T03:55:32.067Z,15.50
2023-01-23T03:57:59.110Z,13.70
2023-01-23T04:00:29.337Z,13.70
2023-01-23T04:02:59.284Z,16.90
2023-01-23T04:05:26.711Z,14.30
2023-01-23T04:07:53.965Z,15.10
2023-01-23T04:10:22.591Z,13.40
2023-01-23T04:12:54.512Z,13.30
2023-01-23T04:15:21.670Z,16.00
2023-01-23T04:17:50.276Z,18.20
2023-01-23T04:20:17.751Z,14.80
2023-01-23T04:22:45.061Z,15.60
2023-01-23T04:25:12.224Z,17.00
2023-01-23T04:27:39.882Z,15.50
2023-01-23T04:30:08.180Z,17.30
2023-01-23T04:32:35.411Z,14.20
2023-01-23T04:35:02.868Z,17.30
2023-01-23T04:37:30.322Z,15.70
2023-01-23T04:39:57.477Z,13.70
2023-01-23T04:42:24.625Z,12.00
2023-01-23T04:45:00.889Z,9.90
2023-01-23T04:47:46.992Z,9.00
2023-01-23T04:50:14.548Z,9.90
2023-01-23T04:52:43.954Z,9.70
2023-01-23T04:55:11.824Z,10.70
2023-01-23T04:57:38.965Z,8.90
2023-01-23T05:00:14.106Z,10.30
2023-01-23T05:02:41.394Z,9.10
2023-01-23T05:05:09.166Z,8.60
2023-01-23T05:07:37.618Z,8.70
2023-01-23T05:12:35.491Z,7.50
2023-01-23T05:15:02.843Z,9.20
2023-01-23T05:17:30.306Z,12.30
2023-01-23T05:19:57.470Z,11.80
2023-01-23T05:22:24.604Z,11.70
2023-01-23T05:24:52.164Z,10.50
2023-01-23T05:27:20.134Z,12.00
2023-01-23T05:29:48.310Z,13.20
2023-01-23T05:32:19.965Z,9.50
2023-01-23T05:35:02.684Z,9.70
2023-01-23T05:37:30.959Z,10.80
2023-01-23T05:40:04.925Z,10.90
2023-01-23T05:42:51.987Z,12.20
2023-01-23T05:45:48.322Z,8.30
2023-01-23T05:48:23.974Z,13.90
2023-01-23T05:50:51.142Z,10.80
2023-01-23T05:53:20.120Z,10.80
2023-01-23T05:55:47.237Z,12.00
2023-01-23T05:58:16.054Z,14.40
2023-01-23T06:01:14.435Z,10.20
2023-01-23T06:04:00.183Z,11.60
2023-01-23T06:06:34.753Z,12.40
2023-01-23T06:09:02.323Z,10.40
2023-01-23T06:11:31.513Z,13.50
2023-01-23T12:40:18.099Z,8.60
2023-01-23T12:43:12.181Z,8.60
2023-01-23T12:45:42.616Z,8.20
2023-01-23T12:48:33.129Z,10.20
2023-01-23T12:51:06.939Z,10.90
2023-01-23T12:53:37.677Z,9.60
2023-01-23T12:56:15.666Z,12.70
2023-01-23T12:59:00.320Z,11.80
2023-01-23T13:02:12.095Z,9.90
2023-01-23T13:05:06.305Z,10.00
2023-01-23T13:07:37.965Z,12.30
2023-01-23T13:10:26.722Z,12.10
2023-01-23T13:12:55.312Z,11.10
2023-01-23T13:15:38.752Z,10.60
2023-01-23T13:18:14.798Z,10.80
2023-01-23T13:21:17.601Z,9.50
2023-01-23T13:23:44.751Z,12.80
2023-01-23T13:26:23.561Z,11.70
2023-01-23T13:28:57.893Z,11.70
2023-01-23T13:31:47.546Z,12.50
2023-01-23T13:36:46.221Z,13.40
2023-01-23T13:39:16.496Z,15.80
2023-01-23T13:41:44.793Z,12.90
2023-01-23T18:24:55.811Z,22.70
2023-01-23T18:27:25.934Z,27.60
2023-01-23T18:30:03.935Z,26.80
2023-01-23T18:32:54.945Z,24.30
2023-01-23T18:35:26.194Z,27.30
2023-01-23T18:38:13.517Z,27.20
2023-01-23T18:41:08.320Z,23.00
2023-01-23T18:43:43.871Z,26.10
2023-01-23T18:46:19.156Z,24.80
2023-01-23T18:48:48.210Z,24.10
2023-01-23T18:51:35.033Z,24.20
2023-01-23T18:54:06.271Z,26.10
2023-01-23T18:57:13.051Z,25.60
2023-01-23T18:59:50.441Z,26.80
2023-01-23T19:02:52.938Z,24.70
2023-01-23T19:05:29.804Z,24.40
2023-01-23T19:08:00.057Z,24.10
2023-01-23T19:10:40.133Z,25.10
2023-01-23T19:13:40.564Z,23.80
2023-01-23T19:16:17.854Z,28.40
2023-01-23T19:19:16.449Z,25.60
2023-01-23T19:21:46.412Z,27.00
2023-01-23T19:24:21.725Z,24.80
2023-01-23T19:26:51.067Z,23.90
2023-01-23T19:29:22.427Z,28.60
2023-01-23T19:32:09.317Z,27.10
2023-01-23T19:34:39.032Z,25.50
2023-01-23T19:37:08.438Z,20.40
2023-01-23T19:39:36.817Z,25.30
2023-01-23T19:42:05.397Z,24.30
2023-01-23T19:44:33.992Z,24.20
2023-01-23T19:47:03.738Z,24.50
2023-01-23T19:52:02.209Z,25.50
2023-01-23T19:54:31.495Z,25.30
2023-01-23T19:57:00.081Z,27.50
2023-01-23T19:59:28.561Z,29.80
2023-01-23T20:02:00.051Z,29.70
2023-01-23T20:04:28.711Z,30.30
2023-01-23T20:06:57.593Z,27.20
2023-01-23T20:09:26.286Z,22.00
2023-01-23T20:11:58.248Z,28.10
2023-01-23T20:14:27.653Z,27.80
2023-01-23T20:16:56.613Z,28.10
2023-01-23T20:19:25.348Z,25.60
2023-01-23T20:21:53.714Z,28.60
2023-01-23T20:24:22.241Z,31.00
2023-01-23T20:26:50.829Z,28.00
2023-01-23T20:29:19.471Z,28.10
2023-01-23T20:31:47.958Z,27.30
2023-01-23T20:34:16.273Z,32.10
2023-01-23T20:36:44.918Z,25.40
2023-01-23T20:39:13.608Z,29.30
2023-01-23T20:41:42.091Z,25.40
2023-01-23T20:44:12.522Z,22.60
2023-01-23T20:49:13.480Z,24.50
2023-01-23T20:51:41.862Z,26.10
2023-01-23T20:54:10.655Z,30.30
2023-01-23T20:56:39.046Z,27.60
2023-01-23T20:59:23.294Z,31.10
2023-01-23T21:02:10.517Z,26.00
2023-01-23T21:04:40.733Z,28.70
2023-01-23T21:07:09.223Z,27.30
2023-01-23T21:09:37.821Z,24.90
2023-01-23T21:12:07.207Z,28.60
2023-01-23T21:14:37.538Z,23.50
2023-01-23T21:17:06.328Z,26.50
2023-01-23T21:19:36.370Z,24.50
2023-01-23T21:22:06.274Z,26.60
2023-01-23T21:24:35.165Z,26.80
2023-01-23T21:27:04.699Z,28.20
2023-01-23T21:29:33.562Z,27.30
2023-01-23T21:32:02.003Z,27.70
2023-01-23T21:34:31.355Z,27.90
2023-01-23T21:36:59.938Z,33.90
